Terminal Aerodrome Forecast
Issued by NWS

Home | Current Version | Previous Version | Text Only | Print | Product List | Glossary On
Versions: 1 2 3 4 5 6 7 8 9 10 11 12
000
FTUS45 KTFX 230500
TAFBZN
TAF
KBZN 230520Z 2306/2406 VRB06KT P6SM SCT150
     FM232000 35006KT P6SM VCTS SCT070CB BKN150
     FM240200 17006KT P6SM SCT180=

USA.gov is the U.S. government's official web portal to all federal, state and local government web resources and services.